createdAt,value
2018-06-30T00:01:32.741Z,62.80
2018-06-30T00:04:01.635Z,62.70
2018-06-30T00:06:30.745Z,62.80
2018-06-30T00:08:59.661Z,62.50
2018-06-30T00:11:29.412Z,62.80
2018-06-30T00:13:59.351Z,62.60
2018-06-30T00:16:32.938Z,62.80
2018-06-30T00:19:01.969Z,62.80
2018-06-30T00:21:31.409Z,62.80
2018-06-30T00:24:00.286Z,62.70
2018-06-30T00:26:29.137Z,62.70
2018-06-30T00:28:57.985Z,62.70
2018-06-30T00:31:27.793Z,62.70
2018-06-30T00:33:57.675Z,62.60
2018-06-30T00:36:26.563Z,62.70
2018-06-30T00:38:55.435Z,62.70
2018-06-30T00:41:24.207Z,62.60
2018-06-30T00:43:53.345Z,62.60
2018-06-30T00:46:23.275Z,62.50
2018-06-30T00:48:52.739Z,62.50
2018-06-30T00:51:21.619Z,62.70
2018-06-30T00:53:50.504Z,62.70
2018-06-30T00:56:19.383Z,62.40
2018-06-30T00:58:49.173Z,62.90
2018-06-30T01:01:18.699Z,63.20
2018-06-30T01:03:47.695Z,63.50
2018-06-30T01:06:16.631Z,63.70
2018-06-30T01:08:46.163Z,63.80
2018-06-30T01:11:15.792Z,63.70
2018-06-30T01:13:48.683Z,63.60
2018-06-30T01:16:17.613Z,63.70
2018-06-30T01:18:48.579Z,63.70
2018-06-30T01:21:18.113Z,63.80
2018-06-30T01:23:47.354Z,63.80
2018-06-30T01:26:16.209Z,63.80
2018-06-30T01:28:46.166Z,64.00
2018-06-30T01:31:15.323Z,64.20
2018-06-30T01:33:44.243Z,64.30
2018-06-30T01:36:13.355Z,64.40
2018-06-30T01:38:46.151Z,64.40
2018-06-30T01:41:15.087Z,64.30
2018-06-30T01:43:44.575Z,64.20
2018-06-30T01:46:13.497Z,64.40
2018-06-30T01:48:47.064Z,64.30
2018-06-30T01:51:16.383Z,64.70
2018-06-30T01:53:46.019Z,64.60
2018-06-30T01:58:44.959Z,64.80
2018-06-30T02:01:18.176Z,65.10
2018-06-30T02:03:47.188Z,65.10
2018-06-30T02:06:16.017Z,65.20
2018-06-30T02:25:17.674Z,65.80
2018-06-30T02:27:47.893Z,65.70
2018-06-30T02:30:17.443Z,65.70
2018-06-30T02:32:46.233Z,65.80
2018-06-30T02:35:15.735Z,66.00
2018-06-30T02:37:44.557Z,66.30
2018-06-30T02:40:18.075Z,66.50
2018-06-30T02:42:46.959Z,66.40
2018-06-30T02:45:16.009Z,66.20
2018-06-30T02:47:44.823Z,66.30
2018-06-30T02:50:13.647Z,66.30
2018-06-30T02:52:42.535Z,66.40
2018-06-30T02:55:11.511Z,66.30
2018-06-30T02:57:40.444Z,66.40
2018-06-30T03:02:37.773Z,66.90
2018-06-30T03:05:06.722Z,66.60
2018-06-30T03:07:36.857Z,66.80
2018-06-30T03:10:10.049Z,66.90
2018-06-30T03:15:09.191Z,66.90
2018-06-30T03:17:41.835Z,67.20
2018-06-30T03:20:10.685Z,67.10
2018-06-30T03:22:40.469Z,67.20
2018-06-30T03:25:09.345Z,67.30
2018-06-30T03:27:38.203Z,67.70
2018-06-30T03:30:07.113Z,67.50
2018-06-30T03:32:41.013Z,67.50
2018-06-30T03:35:11.011Z,67.60
2018-06-30T03:40:08.267Z,67.60
2018-06-30T03:42:37.481Z,67.70
2018-06-30T03:45:06.376Z,67.70
2018-06-30T03:47:35.677Z,67.40
2018-06-30T03:50:09.835Z,67.70
2018-06-30T03:52:38.639Z,67.70
2018-06-30T03:55:07.439Z,67.50
2018-06-30T03:57:37.668Z,67.50
2018-06-30T04:00:07.447Z,67.60
2018-06-30T04:02:36.473Z,67.90
2018-06-30T04:05:05.313Z,67.70
2018-06-30T04:07:35.549Z,67.50
2018-06-30T04:10:04.597Z,67.30
2018-06-30T04:12:33.532Z,67.30
2018-06-30T04:15:02.372Z,67.40
2018-06-30T04:17:31.131Z,67.30
2018-06-30T04:20:00.663Z,67.10
2018-06-30T04:22:29.871Z,66.70
2018-06-30T04:24:58.845Z,66.70
2018-06-30T04:27:28.197Z,66.80
2018-06-30T04:29:57.108Z,66.80
2018-06-30T04:32:26.176Z,67.30
2018-06-30T04:34:55.027Z,66.40
2018-06-30T04:37:24.249Z,66.30
2018-06-30T04:39:53.053Z,65.60
2018-06-30T04:42:21.949Z,65.40
2018-06-30T04:44:50.864Z,65.30
2018-06-30T04:47:19.721Z,65.10
2018-06-30T04:49:48.845Z,65.20
2018-06-30T04:54:46.635Z,64.90
2018-06-30T04:57:15.721Z,65.10
2018-06-30T04:59:44.652Z,64.90
2018-06-30T05:02:13.853Z,64.50
2018-06-30T05:04:45.027Z,64.90
2018-06-30T05:07:14.325Z,64.50
2018-06-30T05:09:43.557Z,64.90
2018-06-30T05:12:12.539Z,64.10
2018-06-30T05:14:43.285Z,64.00
2018-06-30T05:17:12.204Z,63.40
2018-06-30T05:19:41.331Z,62.80
2018-06-30T05:22:10.389Z,63.00
2018-06-30T05:24:39.423Z,62.30
2018-06-30T05:27:09.063Z,61.70
2018-06-30T05:29:39.079Z,61.30
2018-06-30T05:32:08.753Z,61.10
2018-06-30T05:34:37.660Z,60.00
2018-06-30T05:37:06.875Z,59.30
2018-06-30T05:39:36.881Z,58.90
2018-06-30T05:42:05.925Z,58.30
2018-06-30T05:44:35.165Z,57.90
2018-06-30T05:47:04.401Z,57.40
2018-06-30T05:49:33.355Z,57.10
2018-06-30T05:52:02.231Z,56.60
2018-06-30T05:54:35.549Z,56.00
2018-06-30T05:57:14.153Z,56.40
2018-06-30T05:59:49.914Z,56.50
2018-06-30T06:02:19.313Z,55.50
2018-06-30T06:04:49.530Z,55.80
2018-06-30T06:07:31.221Z,55.70
2018-06-30T06:10:01.731Z,55.80
2018-06-30T06:12:31.558Z,56.60
2018-06-30T06:15:01.257Z,56.90
2018-06-30T06:46:09.163Z,48.90
2018-06-30T06:55:36.109Z,43.20
2018-06-30T06:58:08.568Z,41.50
2018-06-30T07:00:39.865Z,41.60
2018-06-30T07:03:10.653Z,38.80
2018-06-30T07:05:41.272Z,36.90
2018-06-30T07:08:12.000Z,36.00
2018-06-30T07:10:43.815Z,34.80
2018-06-30T07:13:14.379Z,34.70
2018-06-30T07:15:46.659Z,33.90
2018-06-30T07:18:18.995Z,33.90
2018-06-30T07:20:49.580Z,33.30
2018-06-30T07:23:21.527Z,32.20
2018-06-30T07:25:56.470Z,33.70
2018-06-30T07:28:43.024Z,32.80
2018-06-30T07:31:14.896Z,32.80
2018-06-30T08:24:15.858Z,40.90
2018-06-30T08:27:07.076Z,40.80
2018-06-30T08:29:43.176Z,41.90
2018-06-30T08:32:19.232Z,42.20
2018-06-30T08:35:06.938Z,43.60
2018-06-30T08:37:54.033Z,42.30
2018-06-30T08:40:27.764Z,41.40
2018-06-30T08:43:18.572Z,41.00
2018-06-30T08:46:39.427Z,40.20
2018-06-30T08:49:39.449Z,39.70
2018-06-30T08:52:37.832Z,40.30
2018-06-30T08:55:12.707Z,41.50
2018-06-30T09:20:02.194Z,39.60
2018-06-30T09:43:16.498Z,38.20
2018-06-30T09:47:47.426Z,37.60
2018-06-30T10:04:05.755Z,35.90
2018-06-30T10:06:55.249Z,36.00
2018-06-30T10:09:33.939Z,35.80
2018-06-30T10:15:25.695Z,35.90
2018-06-30T10:18:21.213Z,35.10
2018-06-30T10:26:28.537Z,34.30
2018-06-30T10:29:06.844Z,36.10
2018-06-30T10:31:59.781Z,35.30
2018-06-30T10:41:45.317Z,35.70
2018-06-30T10:44:18.579Z,36.90
2018-06-30T10:46:50.571Z,36.20
2018-06-30T10:49:21.781Z,37.50
2018-06-30T10:51:53.933Z,37.50
2018-06-30T10:54:39.311Z,37.90
2018-06-30T10:57:09.484Z,37.50
2018-06-30T10:59:41.768Z,37.80
2018-06-30T11:02:14.602Z,36.40
2018-06-30T11:04:45.884Z,36.60
2018-06-30T11:07:16.156Z,36.00
2018-06-30T11:09:47.410Z,36.10
2018-06-30T12:33:42.104Z,34.70
2018-06-30T12:36:21.121Z,32.30
2018-06-30T12:38:50.450Z,32.00
2018-06-30T12:41:19.377Z,31.50
2018-06-30T12:43:49.282Z,31.10
2018-06-30T12:46:18.528Z,30.70
2018-06-30T12:48:47.797Z,30.30
2018-06-30T12:51:17.863Z,30.30
2018-06-30T12:53:47.126Z,30.40
2018-06-30T12:56:16.124Z,30.60
2018-06-30T12:58:46.400Z,30.60
2018-06-30T13:01:15.416Z,29.90
2018-06-30T13:03:44.911Z,30.20
2018-06-30T13:06:14.154Z,30.30
2018-06-30T13:08:43.030Z,29.80
2018-06-30T13:11:12.606Z,29.40
2018-06-30T13:13:42.204Z,29.90
2018-06-30T13:16:12.147Z,29.50
2018-06-30T13:18:41.280Z,29.70
2018-06-30T13:21:10.371Z,29.50
2018-06-30T13:23:39.690Z,29.60
2018-06-30T13:26:08.810Z,29.50
2018-06-30T13:28:37.807Z,28.90
2018-06-30T13:31:07.547Z,29.00
2018-06-30T13:33:36.535Z,30.60
2018-06-30T13:36:05.908Z,29.60
2018-06-30T13:38:35.135Z,30.90
2018-06-30T13:41:04.256Z,30.00
2018-06-30T13:43:33.710Z,29.60
2018-06-30T13:46:02.904Z,29.50
2018-06-30T13:48:31.817Z,29.70
2018-06-30T13:51:00.812Z,29.20
2018-06-30T13:53:29.736Z,29.20
2018-06-30T13:55:59.386Z,29.50
